Time;durP1;ratioP1;P1;durP2;ratioP2;P2;SDS_P1;SDS_P2;PMS_P1;PMS_P2;Temp;Humidity;BMP_temperature;BMP_pressure;BME280_temperature;BME280_humidity;BME280_pressure;Samples;Min_cycle;Max_cycle;Signal;HPM_P1;HPM_P2
2020/12/25 00:00:09;;;;;;;0.10;0.10;;;5.10;99.90;;;;;;4164774;28;20494;-89
2020/12/25 00:02:11;;;;;;;0.10;0.10;;;5.10;99.90;;;;;;4170661;28;20515;-87
2020/12/25 00:04:12;;;;;;;0.20;0.20;;;5.10;99.90;;;;;;4170799;28;20053;-87
2020/12/25 00:06:14;;;;;;;0.10;0.10;;;5.20;99.90;;;;;;4164072;28;20065;-87
2020/12/25 00:08:15;;;;;;;0.10;0.10;;;5.10;99.90;;;;;;4147441;28;20056;-87
2020/12/25 00:10:16;;;;;;;0.10;0.10;;;5.10;99.90;;;;;;4144103;28;20060;-87
2020/12/25 00:12:17;;;;;;;0.80;0.30;;;4.90;99.90;;;;;;4179466;28;20057;-88
2020/12/25 00:14:19;;;;;;;0.30;0.30;;;4.90;99.90;;;;;;4172749;28;20417;-90
2020/12/25 00:16:32;;;;;;;0.20;0.20;;;4.80;99.90;;;;;;4151540;28;20140;-88
2020/12/25 00:18:34;;;;;;;0.10;0.10;;;4.80;99.90;;;;;;4182352;28;20054;-87
2020/12/25 00:20:35;;;;;;;0.20;0.20;;;4.90;99.90;;;;;;4137502;28;20050;-87
2020/12/25 00:22:37;;;;;;;0.30;0.30;;;4.90;99.90;;;;;;4132107;28;20050;-87
2020/12/25 00:24:40;;;;;;;0.20;0.20;;;4.90;99.90;;;;;;4148168;28;20049;-88
2020/12/25 00:26:41;;;;;;;0.20;0.20;;;4.90;99.90;;;;;;4149393;28;20054;-87
2020/12/25 00:28:42;;;;;;;0.10;0.10;;;4.90;99.90;;;;;;4169236;28;20259;-87
2020/12/25 00:30:44;;;;;;;0.10;0.10;;;5.00;99.90;;;;;;4166021;28;20030;-90
2020/12/25 00:32:46;;;;;;;0.20;0.20;;;5.00;99.90;;;;;;4151457;28;20034;-91
2020/12/25 00:34:48;;;;;;;0.50;0.50;;;5.00;99.90;;;;;;4187949;28;20033;-88
2020/12/25 00:36:49;;;;;;;0.25;0.20;;;5.00;99.90;;;;;;4137622;28;20074;-87
2020/12/25 00:38:50;;;;;;;0.10;0.10;;;5.00;99.90;;;;;;4131016;28;20058;-87
2020/12/25 00:40:51;;;;;;;0.30;0.30;;;5.00;99.90;;;;;;4158194;28;20060;-87
2020/12/25 00:42:53;;;;;;;0.30;0.30;;;5.00;99.90;;;;;;4152702;28;20073;-87
2020/12/25 00:44:54;;;;;;;0.10;0.10;;;5.00;99.90;;;;;;4114972;28;20130;-87
2020/12/25 00:46:55;;;;;;;0.30;0.30;;;5.10;99.90;;;;;;4130697;28;20495;-87
2020/12/25 00:48:57;;;;;;;0.10;0.10;;;5.00;99.90;;;;;;4129543;28;20068;-86
2020/12/25 00:50:58;;;;;;;0.30;0.30;;;5.10;99.90;;;;;;4148278;28;20046;-87
2020/12/25 00:52:59;;;;;;;0.20;0.20;;;5.10;99.90;;;;;;4165955;28;20488;-87
2020/12/25 00:55:00;;;;;;;0.45;0.20;;;5.10;99.90;;;;;;4135208;28;20069;-88
2020/12/25 00:57:02;;;;;;;0.13;0.13;;;5.10;99.90;;;;;;4133845;28;20408;-87
2020/12/25 00:59:03;;;;;;;0.10;0.10;;;5.10;99.90;;;;;;4150288;28;20080;-86
2020/12/25 01:01:05;;;;;;;0.20;0.20;;;5.10;99.90;;;;;;4149549;28;20080;-86
2020/12/25 01:03:06;;;;;;;0.20;0.20;;;5.10;99.90;;;;;;4133677;28;20588;-86
2020/12/25 01:05:07;;;;;;;0.35;0.35;;;5.10;99.90;;;;;;4177681;28;20523;-88
2020/12/25 01:07:09;;;;;;;0.20;0.20;;;5.10;99.90;;;;;;4133203;28;20046;-86
2020/12/25 01:09:10;;;;;;;0.10;0.10;;;5.10;99.90;;;;;;4166171;28;20048;-87
2020/12/25 01:11:13;;;;;;;0.20;0.20;;;5.00;99.90;;;;;;4154404;28;20057;-86
2020/12/25 01:13:15;;;;;;;0.10;0.10;;;5.00;99.90;;;;;;4133014;28;20141;-86
2020/12/25 01:15:16;;;;;;;0.10;0.10;;;5.10;99.90;;;;;;4152109;28;20064;-86
2020/12/25 01:17:17;;;;;;;0.32;0.17;;;5.00;99.90;;;;;;4166440;28;20045;-86
2020/12/25 01:19:18;;;;;;;0.32;0.30;;;5.00;99.90;;;;;;4131216;28;20057;-87
2020/12/25 01:21:20;;;;;;;0.20;0.20;;;5.00;99.90;;;;;;4150729;28;20128;-86
2020/12/25 01:23:21;;;;;;;0.25;0.25;;;5.00;99.90;;;;;;4157035;28;20049;-87
2020/12/25 01:25:22;;;;;;;0.20;0.20;;;4.90;99.90;;;;;;4141468;28;20549;-87
2020/12/25 01:27:24;;;;;;;0.20;0.20;;;4.90;99.90;;;;;;4167598;28;20052;-87
2020/12/25 01:29:25;;;;;;;0.22;0.20;;;4.90;99.90;;;;;;4149503;28;20145;-87
2020/12/25 01:31:26;;;;;;;0.68;0.68;;;4.90;99.90;;;;;;4127182;28;20050;-87
2020/12/25 01:33:28;;;;;;;0.28;0.28;;;4.80;99.90;;;;;;4147813;28;20445;-85
2020/12/25 01:35:29;;;;;;;0.20;0.20;;;4.80;99.90;;;;;;4145732;28;20141;-87
2020/12/25 01:37:31;;;;;;;0.20;0.20;;;4.80;99.90;;;;;;4149534;28;20056;-87
2020/12/25 01:39:32;;;;;;;0.10;0.10;;;4.70;99.90;;;;;;4130870;28;20060;-86
2020/12/25 01:41:33;;;;;;;2.20;1.65;;;4.70;99.90;;;;;;4166737;28;20420;-87
2020/12/25 01:43:34;;;;;;;0.30;0.30;;;4.60;99.90;;;;;;4134210;28;20057;-87
2020/12/25 01:45:36;;;;;;;1.00;0.32;;;4.50;99.90;;;;;;4155245;28;20057;-86
2020/12/25 01:47:37;;;;;;;0.20;0.20;;;4.50;99.90;;;;;;4183168;28;20052;-87
2020/12/25 01:49:47;;;;;;;0.25;0.25;;;4.50;99.90;;;;;;4135618;28;20042;-86
2020/12/25 01:51:49;;;;;;;0.20;0.20;;;4.50;99.90;;;;;;4132940;28;20054;-87
2020/12/25 01:53:50;;;;;;;0.20;0.20;;;4.40;99.90;;;;;;4132912;28;20121;-87
2020/12/25 01:55:51;;;;;;;0.10;0.10;;;4.40;99.90;;;;;;4148698;28;20058;-88
2020/12/25 01:57:54;;;;;;;0.10;0.10;;;4.40;99.90;;;;;;4149292;28;20425;-86
2020/12/25 01:59:55;;;;;;;0.20;0.20;;;4.30;99.90;;;;;;4133363;28;20058;-87
2020/12/25 02:01:57;;;;;;;0.10;0.10;;;4.30;99.90;;;;;;4164192;28;20046;-87
2020/12/25 02:03:59;;;;;;;0.15;0.15;;;4.20;99.90;;;;;;4131903;28;20442;-87
2020/12/25 02:06:00;;;;;;;0.20;0.20;;;4.30;99.90;;;;;;4165889;28;20418;-87
2020/12/25 02:08:01;;;;;;;0.20;0.20;;;4.30;99.90;;;;;;4152544;28;20049;-88
2020/12/25 02:10:03;;;;;;;0.57;0.57;;;4.30;99.90;;;;;;4162828;28;20052;-87
2020/12/25 02:12:04;;;;;;;0.10;0.10;;;4.30;99.90;;;;;;4166649;28;20057;-89
2020/12/25 02:14:06;;;;;;;0.25;0.25;;;4.40;99.90;;;;;;4148866;28;20605;-87
2020/12/25 02:16:07;;;;;;;0.20;0.20;;;4.40;99.90;;;;;;4126114;28;20133;-86
2020/12/25 02:18:08;;;;;;;0.20;0.20;;;4.40;99.90;;;;;;4133218;28;20064;-87
2020/12/25 02:20:10;;;;;;;0.10;0.10;;;4.50;99.90;;;;;;4165335;28;20136;-87
2020/12/25 02:22:11;;;;;;;0.20;0.20;;;4.50;99.90;;;;;;4148764;28;20046;-86
2020/12/25 02:24:12;;;;;;;0.10;0.10;;;4.50;99.90;;;;;;4148670;28;20137;-87
2020/12/25 02:26:13;;;;;;;0.20;0.20;;;4.40;99.90;;;;;;4165361;28;20490;-86
2020/12/25 02:28:15;;;;;;;0.10;0.10;;;4.50;99.90;;;;;;4170814;28;20156;-87
2020/12/25 02:30:16;;;;;;;0.55;0.55;;;4.50;99.90;;;;;;4181782;28;20059;-86
2020/12/25 02:32:17;;;;;;;0.20;0.20;;;4.50;99.90;;;;;;4167083;28;20050;-85
2020/12/25 02:34:18;;;;;;;0.50;0.50;;;4.40;99.90;;;;;;4142819;28;20054;-86
2020/12/25 02:36:20;;;;;;;0.45;0.28;;;4.40;99.90;;;;;;4148572;28;20054;-86
2020/12/25 02:38:21;;;;;;;0.20;0.20;;;4.40;99.90;;;;;;4165585;28;20408;-86
2020/12/25 02:40:22;;;;;;;0.32;0.32;;;4.40;99.90;;;;;;4178165;28;20041;-86
2020/12/25 02:42:24;;;;;;;0.10;0.10;;;4.40;99.90;;;;;;4183863;28;20055;-86
2020/12/25 02:44:25;;;;;;;0.10;0.10;;;4.40;99.90;;;;;;4148761;28;20060;-86
2020/12/25 02:46:27;;;;;;;0.10;0.10;;;4.40;99.90;;;;;;4148375;28;20064;-88
2020/12/25 02:48:28;;;;;;;0.10;0.10;;;4.40;99.90;;;;;;4147973;28;20050;-85
2020/12/25 02:50:30;;;;;;;0.30;0.30;;;4.30;99.90;;;;;;4148569;28;20140;-87
2020/12/25 02:52:31;;;;;;;0.20;0.20;;;4.40;99.90;;;;;;4177338;28;20140;-86
2020/12/25 02:54:32;;;;;;;0.30;0.30;;;4.30;99.90;;;;;;4161979;28;20056;-86
2020/12/25 02:56:33;;;;;;;0.20;0.20;;;4.40;99.90;;;;;;4148276;28;20057;-86
2020/12/25 02:58:35;;;;;;;0.20;0.20;;;4.30;99.90;;;;;;4144586;28;20491;-87
2020/12/25 03:00:36;;;;;;;0.20;0.20;;;4.30;99.90;;;;;;4158303;28;20583;-86
2020/12/25 03:02:37;;;;;;;1.50;0.30;;;4.30;99.90;;;;;;4178251;28;20045;-87
2020/12/25 03:04:38;;;;;;;0.20;0.20;;;4.30;99.90;;;;;;4163243;28;20051;-85
2020/12/25 03:06:40;;;;;;;0.20;0.20;;;4.30;99.90;;;;;;4161823;28;20621;-86
2020/12/25 03:08:41;;;;;;;0.20;0.20;;;4.30;99.90;;;;;;4148370;28;20129;-89
2020/12/25 03:10:43;;;;;;;0.10;0.10;;;4.30;99.90;;;;;;4181008;28;20080;-87
2020/12/25 03:12:44;;;;;;;0.22;0.22;;;4.30;99.90;;;;;;4180605;28;20128;-88
2020/12/25 03:14:46;;;;;;;0.20;0.20;;;4.30;99.90;;;;;;4163968;28;20057;-86
2020/12/25 03:16:47;;;;;;;0.10;0.10;;;4.30;99.90;;;;;;4147868;28;20108;-86
2020/12/25 03:18:48;;;;;;;0.20;0.20;;;4.30;99.90;;;;;;4147412;28;20054;-87
2020/12/25 03:20:49;;;;;;;0.10;0.10;;;4.40;99.90;;;;;;4171698;28;20136;-87
2020/12/25 03:22:51;;;;;;;0.10;0.10;;;4.40;99.90;;;;;;4129486;28;20137;-85
2020/12/25 03:24:52;;;;;;;0.20;0.20;;;4.40;99.90;;;;;;4162958;28;20132;-85
2020/12/25 03:26:53;;;;;;;0.20;0.20;;;4.40;99.90;;;;;;4131871;28;20062;-86
2020/12/25 03:28:54;;;;;;;0.68;0.43;;;4.40;99.90;;;;;;4131158;28;20050;-86
2020/12/25 03:30:56;;;;;;;0.30;0.30;;;4.40;99.90;;;;;;4163952;28;20052;-86
2020/12/25 03:32:57;;;;;;;0.10;0.10;;;4.40;99.90;;;;;;4147922;28;20132;-86
2020/12/25 03:34:59;;;;;;;0.10;0.10;;;4.40;99.90;;;;;;4147918;28;20054;-85
2020/12/25 03:37:00;;;;;;;0.10;0.10;;;4.40;99.90;;;;;;4159335;28;20046;-85
2020/12/25 03:39:01;;;;;;;0.10;0.10;;;4.40;99.90;;;;;;4147691;28;20053;-86
2020/12/25 03:41:03;;;;;;;0.20;0.20;;;4.40;99.50;;;;;;4161393;28;20060;-85
2020/12/25 03:43:04;;;;;;;0.20;0.20;;;4.30;99.70;;;;;;4145383;28;20054;-86
2020/12/25 03:45:05;;;;;;;0.10;0.10;;;4.30;99.90;;;;;;4116062;28;20055;-86
2020/12/25 03:47:06;;;;;;;0.20;0.20;;;4.30;99.70;;;;;;4157097;28;20148;-86
2020/12/25 03:49:08;;;;;;;0.30;0.30;;;4.30;99.90;;;;;;4147051;28;20072;-85
2020/12/25 03:51:09;;;;;;;0.10;0.10;;;4.30;99.90;;;;;;4116749;28;20134;-87
2020/12/25 03:53:10;;;;;;;0.10;0.10;;;4.20;99.90;;;;;;4131210;28;20054;-85
2020/12/25 03:55:11;;;;;;;0.10;0.10;;;4.30;99.90;;;;;;4130352;28;20050;-87
2020/12/25 03:57:13;;;;;;;0.10;0.10;;;4.30;99.90;;;;;;4130354;28;20057;-85
2020/12/25 03:59:14;;;;;;;0.10;0.10;;;4.20;99.90;;;;;;4129081;28;20058;-86
2020/12/25 04:01:16;;;;;;;0.10;0.10;;;4.20;99.90;;;;;;4130790;28;20578;-86
2020/12/25 04:03:17;;;;;;;0.35;0.35;;;4.20;99.90;;;;;;4131011;28;20057;-87
2020/12/25 04:05:18;;;;;;;0.10;0.10;;;4.10;99.90;;;;;;4157889;28;20410;-87
2020/12/25 04:07:19;;;;;;;0.20;0.20;;;4.10;99.90;;;;;;4123518;28;20133;-86
2020/12/25 04:09:21;;;;;;;0.20;0.20;;;4.20;99.90;;;;;;4129512;28;20060;-87
2020/12/25 04:11:22;;;;;;;0.40;0.40;;;4.10;99.90;;;;;;4131074;28;20046;-86
2020/12/25 04:13:23;;;;;;;0.20;0.20;;;4.20;99.90;;;;;;4163365;28;20478;-86
2020/12/25 04:15:24;;;;;;;0.10;0.10;;;4.20;99.90;;;;;;4177611;28;20135;-87
2020/12/25 04:17:26;;;;;;;0.20;0.20;;;4.10;99.40;;;;;;4152664;28;20060;-86
2020/12/25 04:19:27;;;;;;;0.20;0.20;;;4.10;99.90;;;;;;4141958;28;20069;-86
2020/12/25 04:21:28;;;;;;;0.13;0.13;;;4.00;99.90;;;;;;4157488;28;20112;-86
2020/12/25 04:23:30;;;;;;;0.17;0.17;;;4.00;99.90;;;;;;4158935;28;20072;-86
2020/12/25 04:25:31;;;;;;;0.10;0.10;;;4.00;99.90;;;;;;4145727;28;20133;-86
2020/12/25 04:27:32;;;;;;;0.17;0.17;;;4.00;99.90;;;;;;4162750;28;20049;-86
2020/12/25 04:29:33;;;;;;;0.10;0.10;;;4.00;99.90;;;;;;4180314;28;20074;-86
2020/12/25 04:31:35;;;;;;;0.32;0.32;;;4.10;99.90;;;;;;4142742;28;20109;-86
2020/12/25 04:33:36;;;;;;;0.10;0.10;;;4.00;99.90;;;;;;4178079;28;20053;-86
2020/12/25 04:35:37;;;;;;;0.10;0.10;;;4.00;99.90;;;;;;4193327;28;20052;-86
2020/12/25 04:37:38;;;;;;;0.20;0.20;;;4.00;99.90;;;;;;4174270;28;20521;-86
2020/12/25 04:39:40;;;;;;;0.43;0.43;;;4.00;99.90;;;;;;4144425;28;20060;-86
2020/12/25 04:41:41;;;;;;;0.10;0.10;;;4.00;99.90;;;;;;4179940;28;20072;-86
2020/12/25 04:43:45;;;;;;;0.20;0.20;;;4.00;99.90;;;;;;4177113;28;20092;-86
2020/12/25 04:45:46;;;;;;;0.13;0.13;;;4.00;99.90;;;;;;4150961;28;20501;-86
2020/12/25 04:47:48;;;;;;;0.20;0.20;;;4.00;99.90;;;;;;4146989;28;20053;-86
2020/12/25 04:49:49;;;;;;;0.20;0.20;;;4.00;99.90;;;;;;4145754;28;20417;-87
2020/12/25 04:51:50;;;;;;;0.10;0.10;;;3.90;99.90;;;;;;4146703;28;20049;-85
2020/12/25 04:53:52;;;;;;;0.20;0.20;;;3.90;99.90;;;;;;4163205;28;20429;-86
2020/12/25 04:55:54;;;;;;;0.10;0.10;;;3.90;99.90;;;;;;4161745;28;20581;-85
2020/12/25 04:57:58;;;;;;;0.10;0.10;;;3.80;99.90;;;;;;4176794;28;20128;-86
2020/12/25 05:00:00;;;;;;;0.30;0.30;;;3.90;99.90;;;;;;4163441;28;20144;-86
2020/12/25 05:02:01;;;;;;;0.15;0.15;;;3.80;99.90;;;;;;4159494;28;20510;-86
2020/12/25 05:04:02;;;;;;;0.10;0.10;;;3.80;99.90;;;;;;4145266;28;20046;-86
2020/12/25 05:06:20;;;;;;;0.10;0.10;;;3.80;99.90;;;;;;4164536;28;20049;-87
2020/12/25 05:08:21;;;;;;;0.17;0.17;;;3.70;99.90;;;;;;4168604;28;20053;-86
2020/12/25 05:10:23;;;;;;;0.10;0.10;;;3.80;99.90;;;;;;4146319;28;20038;-85
2020/12/25 05:12:26;;;;;;;0.13;0.13;;;3.70;99.90;;;;;;4176765;28;20128;-87
2020/12/25 05:14:28;;;;;;;0.20;0.10;;;3.70;99.90;;;;;;4146914;28;20129;-86
2020/12/25 05:16:29;;;;;;;1.25;0.22;;;3.70;99.90;;;;;;4144007;28;20074;-86
2020/12/25 05:18:31;;;;;;;0.20;0.20;;;3.60;99.90;;;;;;4143424;28;20079;-86
2020/12/25 05:20:35;;;;;;;0.20;0.20;;;3.60;99.90;;;;;;4144498;28;20065;-86
2020/12/25 05:22:36;;;;;;;0.20;0.20;;;3.60;99.90;;;;;;4162746;28;20049;-85
2020/12/25 05:24:39;;;;;;;0.20;0.20;;;3.60;99.90;;;;;;4159366;28;20498;-86
2020/12/25 05:26:40;;;;;;;0.20;0.20;;;3.60;99.90;;;;;;4163322;28;20494;-86
2020/12/25 05:28:47;;;;;;;0.17;0.17;;;3.60;99.90;;;;;;4127842;28;20078;-86
2020/12/25 05:30:48;;;;;;;0.10;0.10;;;3.70;99.90;;;;;;4166929;28;20060;-86
2020/12/25 05:32:50;;;;;;;0.20;0.20;;;3.70;99.90;;;;;;4163486;28;20053;-86
2020/12/25 05:34:51;;;;;;;0.28;0.28;;;3.60;99.90;;;;;;4163716;28;20053;-86
2020/12/25 05:36:53;;;;;;;0.20;0.20;;;3.70;99.90;;;;;;4148940;28;20429;-86
2020/12/25 05:38:55;;;;;;;0.20;0.20;;;3.60;99.90;;;;;;4166855;28;20063;-85
2020/12/25 05:40:58;;;;;;;0.20;0.20;;;3.60;99.90;;;;;;4150515;28;20605;-85
2020/12/25 05:43:00;;;;;;;0.10;0.10;;;3.60;99.90;;;;;;4176618;28;20053;-86
2020/12/25 05:45:01;;;;;;;0.20;0.20;;;3.60;99.90;;;;;;4162807;28;20506;-86
2020/12/25 05:47:02;;;;;;;0.10;0.10;;;3.50;99.90;;;;;;4139080;28;20518;-86
2020/12/25 05:49:03;;;;;;;0.10;0.10;;;3.50;99.90;;;;;;4165506;28;20436;-88
2020/12/25 05:51:08;;;;;;;0.20;0.20;;;3.50;99.90;;;;;;4155056;28;20061;-89
2020/12/25 05:53:10;;;;;;;0.20;0.20;;;3.40;99.90;;;;;;4181738;28;20170;-88
2020/12/25 05:55:11;;;;;;;0.32;0.32;;;3.40;99.90;;;;;;4183217;28;20072;-86
2020/12/25 05:57:12;;;;;;;0.20;0.20;;;3.40;99.90;;;;;;4149598;28;20051;-85
2020/12/25 05:59:14;;;;;;;0.10;0.10;;;3.30;99.90;;;;;;4161763;28;20057;-86
2020/12/25 06:01:17;;;;;;;0.20;0.20;;;3.30;99.90;;;;;;4166134;28;20056;-85
2020/12/25 06:03:20;;;;;;;0.10;0.10;;;3.30;99.90;;;;;;4133575;28;20093;-87
2020/12/25 06:05:23;;;;;;;0.30;0.20;;;3.30;99.90;;;;;;4148564;28;20140;-85
2020/12/25 06:07:24;;;;;;;0.20;0.20;;;3.30;99.90;;;;;;4169216;28;20099;-86
2020/12/25 06:09:30;;;;;;;0.10;0.10;;;3.30;99.90;;;;;;4146453;28;20576;-87
2020/12/25 06:11:31;;;;;;;0.20;0.20;;;3.30;99.90;;;;;;4161892;28;20068;-85
2020/12/25 06:14:01;;;;;;;0.30;0.30;;;3.30;99.90;;;;;;4163396;28;20061;-87
2020/12/25 06:16:03;;;;;;;0.73;0.40;;;3.30;99.90;;;;;;4142235;28;20134;-86
2020/12/25 06:18:16;;;;;;;0.20;0.20;;;3.30;99.90;;;;;;4164668;28;20132;-85
2020/12/25 06:20:17;;;;;;;0.50;0.50;;;3.30;99.90;;;;;;4163363;28;20058;-85
2020/12/25 06:22:20;;;;;;;0.17;0.17;;;3.30;99.90;;;;;;4158885;28;20056;-87
2020/12/25 06:24:22;;;;;;;0.22;0.22;;;3.30;99.90;;;;;;4148839;28;20057;-86
2020/12/25 06:26:24;;;;;;;1.00;0.47;;;3.40;99.90;;;;;;4131253;28;20157;-88
2020/12/25 06:28:27;;;;;;;0.20;0.20;;;3.30;99.90;;;;;;4133629;28;20518;-87
2020/12/25 06:30:29;;;;;;;0.43;0.43;;;3.30;99.90;;;;;;4151107;28;20481;-87
2020/12/25 06:32:31;;;;;;;0.35;0.35;;;3.40;99.90;;;;;;4144819;28;20053;-87
2020/12/25 06:34:49;;;;;;;0.15;0.15;;;3.40;99.90;;;;;;4130171;28;20060;-85
2020/12/25 06:36:50;;;;;;;0.20;0.20;;;3.40;99.90;;;;;;4148996;28;20057;-86
2020/12/25 06:38:52;;;;;;;0.10;0.10;;;3.40;99.90;;;;;;4131912;28;20138;-85
2020/12/25 06:40:57;;;;;;;0.15;0.15;;;3.50;99.90;;;;;;4147375;28;20053;-84
2020/12/25 06:42:59;;;;;;;0.15;0.15;;;3.50;99.90;;;;;;4148224;28;20053;-86
2020/12/25 06:45:10;;;;;;;0.17;0.17;;;3.60;99.90;;;;;;4164521;28;20137;-85
2020/12/25 06:47:12;;;;;;;0.57;0.57;;;3.60;99.90;;;;;;4147048;28;20505;-85
2020/12/25 06:49:14;;;;;;;0.20;0.20;;;3.60;99.90;;;;;;4163211;28;20052;-85
2020/12/25 06:51:23;;;;;;;0.13;0.13;;;3.60;99.90;;;;;;4147591;28;20057;-88
2020/12/25 06:53:42;;;;;;;0.10;0.10;;;3.60;99.90;;;;;;4148497;28;20412;-86
2020/12/25 06:55:48;;;;;;;0.20;0.20;;;3.70;99.90;;;;;;4159864;28;20509;-84
2020/12/25 06:57:54;;;;;;;0.10;0.10;;;3.70;99.90;;;;;;4162548;28;20053;-87
2020/12/25 07:00:03;;;;;;;0.40;0.20;;;3.60;99.90;;;;;;4164895;28;20087;-88
2020/12/25 07:02:05;;;;;;;0.20;0.20;;;3.70;99.90;;;;;;4163813;28;20049;-89
2020/12/25 07:04:06;;;;;;;0.20;0.20;;;3.70;99.90;;;;;;4146138;28;20046;-86
2020/12/25 07:06:11;;;;;;;0.10;0.10;;;3.70;99.90;;;;;;4164290;28;20063;-88
2020/12/25 07:08:29;;;;;;;0.28;0.28;;;3.70;99.90;;;;;;4131788;28;20129;-87
2020/12/25 07:10:30;;;;;;;0.10;0.10;;;3.70;99.90;;;;;;4131869;28;20050;-88
2020/12/25 07:12:31;;;;;;;0.20;0.20;;;3.70;99.90;;;;;;4147824;28;20056;-90
2020/12/25 07:14:32;;;;;;;0.20;0.20;;;3.70;99.90;;;;;;4148621;28;20132;-91
2020/12/25 07:16:34;;;;;;;0.20;0.20;;;3.70;99.90;;;;;;4146438;28;20045;-90
2020/12/25 07:18:36;;;;;;;0.10;0.10;;;3.70;99.90;;;;;;4127728;28;20042;-88
2020/12/25 07:20:37;;;;;;;0.10;0.10;;;3.70;99.90;;;;;;4164182;28;20057;-90
2020/12/25 07:22:38;;;;;;;1.75;0.30;;;3.70;99.90;;;;;;4162845;28;20053;-86
2020/12/25 07:24:40;;;;;;;0.20;0.20;;;3.70;99.90;;;;;;4159017;28;20696;-87
2020/12/25 07:26:42;;;;;;;0.20;0.20;;;3.70;99.90;;;;;;4163819;28;20041;-85
2020/12/25 07:28:43;;;;;;;0.13;0.13;;;3.70;99.90;;;;;;4132110;28;20058;-86
2020/12/25 07:30:44;;;;;;;0.20;0.20;;;3.70;99.90;;;;;;4145863;28;20050;-87
2020/12/25 07:32:45;;;;;;;0.20;0.20;;;3.70;99.90;;;;;;4147686;28;20056;-90
2020/12/25 07:34:47;;;;;;;0.17;0.17;;;3.70;99.90;;;;;;4131476;28;20067;-88
2020/12/25 07:36:48;;;;;;;0.35;0.15;;;3.70;99.90;;;;;;4153275;28;20080;-89
2020/12/25 07:39:00;;;;;;;0.28;0.28;;;3.70;99.90;;;;;;4164131;28;20049;-89
2020/12/25 07:41:01;;;;;;;0.38;0.38;;;3.70;99.90;;;;;;4152921;28;20766;-85
2020/12/25 07:43:03;;;;;;;1.00;0.22;;;3.70;99.90;;;;;;4145866;28;20152;-87
2020/12/25 07:45:05;;;;;;;0.10;0.10;;;3.70;99.90;;;;;;4179192;28;20049;-85
2020/12/25 07:47:08;;;;;;;0.22;0.22;;;3.70;99.90;;;;;;4163569;28;20045;-84
2020/12/25 07:49:09;;;;;;;0.30;0.30;;;3.70;99.90;;;;;;4191130;28;20045;-88
2020/12/25 07:51:11;;;;;;;0.20;0.20;;;3.70;99.90;;;;;;4144506;28;20506;-89
2020/12/25 07:53:16;;;;;;;0.40;0.40;;;3.70;99.90;;;;;;4131038;28;20092;-89
2020/12/25 07:55:18;;;;;;;0.20;0.20;;;3.70;99.90;;;;;;4145079;28;20046;-94
2020/12/25 07:57:19;;;;;;;0.20;0.20;;;3.60;99.90;;;;;;4164041;28;20505;-94
2020/12/25 07:59:21;;;;;;;0.15;0.15;;;3.60;99.90;;;;;;4147299;28;20061;-87
2020/12/25 08:01:23;;;;;;;0.38;0.38;;;3.60;99.90;;;;;;4146051;28;20048;-88
2020/12/25 08:03:25;;;;;;;0.10;0.10;;;3.60;99.90;;;;;;4140205;28;20068;-90
2020/12/25 08:05:27;;;;;;;0.10;0.10;;;3.60;99.90;;;;;;4129585;28;20147;-86
2020/12/25 08:07:29;;;;;;;0.28;0.28;;;3.70;99.90;;;;;;4133390;28;20052;-89
2020/12/25 08:09:33;;;;;;;0.20;0.20;;;3.60;99.90;;;;;;4145232;28;20053;-87
2020/12/25 08:11:34;;;;;;;0.38;0.38;;;3.60;99.90;;;;;;4167621;28;20050;-87
2020/12/25 08:13:36;;;;;;;0.25;0.25;;;3.70;99.90;;;;;;4130772;28;20042;-94
2020/12/25 08:15:37;;;;;;;0.20;0.20;;;3.60;99.90;;;;;;4160604;28;20042;-89
2020/12/25 08:17:39;;;;;;;0.50;0.40;;;3.60;99.90;;;;;;4158597;28;20084;-88
2020/12/25 08:19:40;;;;;;;0.30;0.30;;;3.60;99.90;;;;;;4158500;28;20135;-91
2020/12/25 08:21:42;;;;;;;0.45;0.45;;;3.60;99.90;;;;;;4186436;28;20056;-89
2020/12/25 08:23:44;;;;;;;0.43;0.43;;;3.70;99.90;;;;;;4196059;28;20041;-88
2020/12/25 08:25:53;;;;;;;0.10;0.10;;;3.70;99.90;;;;;;4161575;28;20045;-87
2020/12/25 08:27:55;;;;;;;2.25;1.70;;;3.70;99.90;;;;;;4148422;28;20057;-89
2020/12/25 08:29:56;;;;;;;0.10;0.10;;;3.70;99.90;;;;;;4163986;28;20051;-88
2020/12/25 08:32:08;;;;;;;0.55;0.55;;;3.80;99.90;;;;;;4181309;28;20192;-88
2020/12/25 08:34:21;;;;;;;1.85;1.65;;;3.80;99.90;;;;;;4169120;28;20136;-88
2020/12/25 08:36:23;;;;;;;0.22;0.22;;;3.80;99.90;;;;;;4177458;28;20132;-92
2020/12/25 08:38:42;;;;;;;0.20;0.20;;;3.80;99.90;;;;;;4193483;28;20439;-88
2020/12/25 08:40:47;;;;;;;0.30;0.30;;;3.80;99.90;;;;;;4160705;28;20045;-86
2020/12/25 08:42:50;;;;;;;0.32;0.22;;;3.80;99.90;;;;;;4160541;28;20063;-86
2020/12/25 08:45:00;;;;;;;0.10;0.10;;;3.90;99.90;;;;;;4179109;28;20049;-87
2020/12/25 08:47:06;;;;;;;0.10;0.10;;;3.90;99.90;;;;;;4194738;28;20166;-90
2020/12/25 08:49:07;;;;;;;0.10;0.10;;;3.90;99.90;;;;;;4143826;28;20140;-87
2020/12/25 08:51:12;;;;;;;0.10;0.10;;;3.90;99.90;;;;;;4178760;28;20073;-85
2020/12/25 08:53:21;;;;;;;0.25;0.25;;;3.90;99.90;;;;;;4162550;28;20551;-85
2020/12/25 08:55:23;;;;;;;0.15;0.15;;;3.90;99.80;;;;;;4144669;28;20144;-86
2020/12/25 08:57:30;;;;;;;0.20;0.20;;;3.90;99.90;;;;;;4146667;28;20613;-86
2020/12/25 08:59:32;;;;;;;0.15;0.15;;;4.00;99.60;;;;;;4178232;28;20128;-92
2020/12/25 09:01:39;;;;;;;0.20;0.20;;;4.00;99.60;;;;;;4188456;28;20142;-91
2020/12/25 09:03:41;;;;;;;1.40;0.65;;;4.00;99.40;;;;;;4161147;28;20152;-92
2020/12/25 09:05:45;;;;;;;0.20;0.20;;;4.00;99.40;;;;;;4148355;28;20218;-91
2020/12/25 09:07:46;;;;;;;0.22;0.20;;;4.00;99.20;;;;;;4177296;28;20049;-92
2020/12/25 09:09:48;;;;;;;1.77;0.75;;;4.00;99.20;;;;;;4192023;28;20060;-92
2020/12/25 09:11:49;;;;;;;0.50;0.50;;;4.10;99.30;;;;;;4148409;28;20052;-91
2020/12/25 09:13:51;;;;;;;0.10;0.10;;;4.10;99.20;;;;;;4149612;28;20058;-90
2020/12/25 09:15:52;;;;;;;0.20;0.20;;;4.10;99.00;;;;;;4164217;28;20038;-90
2020/12/25 09:17:54;;;;;;;0.20;0.20;;;4.10;98.60;;;;;;4182965;28;20045;-93
2020/12/25 09:19:55;;;;;;;0.40;0.40;;;4.10;98.10;;;;;;4164381;28;20052;-91
2020/12/25 09:21:56;;;;;;;0.10;0.10;;;4.10;97.70;;;;;;4180131;28;20056;-90
2020/12/25 09:23:57;;;;;;;0.20;0.20;;;4.00;97.70;;;;;;4200805;28;20048;-91
2020/12/25 09:25:59;;;;;;;0.10;0.10;;;4.00;98.20;;;;;;4198307;28;20041;-88
2020/12/25 09:28:00;;;;;;;0.40;0.20;;;4.00;98.50;;;;;;4180873;28;20059;-92
2020/12/25 09:30:01;;;;;;;0.25;0.25;;;4.10;98.00;;;;;;4151535;28;20052;-88
2020/12/25 09:32:02;;;;;;;0.30;0.30;;;4.10;98.00;;;;;;4193201;28;20139;-91
2020/12/25 09:34:03;;;;;;;20.90;1.20;;;4.10;97.30;;;;;;4165179;28;20038;-90
2020/12/25 09:36:06;;;;;;;0.43;0.43;;;4.10;98.10;;;;;;4148883;28;20062;-90
2020/12/25 09:38:07;;;;;;;0.47;0.47;;;4.20;98.20;;;;;;4174388;28;20060;-89
2020/12/25 09:40:09;;;;;;;0.20;0.20;;;4.20;97.50;;;;;;4164010;28;20046;-91
2020/12/25 09:42:12;;;;;;;0.15;0.15;;;4.20;97.40;;;;;;4182739;28;20056;-93
2020/12/25 09:44:16;;;;;;;0.23;0.23;;;4.20;97.90;;;;;;4166177;28;20049;-89
2020/12/25 09:46:17;;;;;;;0.20;0.20;;;4.20;97.70;;;;;;4174906;28;20398;-88
2020/12/25 09:48:18;;;;;;;0.20;0.20;;;4.20;97.20;;;;;;4163494;28;20053;-89
2020/12/25 09:50:19;;;;;;;0.20;0.20;;;4.20;97.20;;;;;;4180983;28;20167;-89
2020/12/25 09:52:21;;;;;;;0.15;0.15;;;4.20;97.20;;;;;;4165297;28;20053;-89
2020/12/25 09:54:22;;;;;;;0.20;0.20;;;4.30;96.90;;;;;;4195589;28;20131;-90
2020/12/25 09:56:23;;;;;;;0.13;0.13;;;4.20;97.10;;;;;;4198896;28;20048;-89
2020/12/25 09:58:24;;;;;;;0.20;0.20;;;4.30;96.80;;;;;;4164428;28;20077;-89
2020/12/25 10:00:26;;;;;;;0.40;0.40;;;4.30;96.70;;;;;;4168274;28;20432;-89
2020/12/25 10:02:27;;;;;;;0.30;0.30;;;4.30;96.50;;;;;;4177581;28;20393;-90
2020/12/25 10:04:28;;;;;;;0.20;0.20;;;4.30;96.50;;;;;;4172473;28;20067;-90
2020/12/25 10:06:29;;;;;;;0.40;0.40;;;4.30;96.50;;;;;;4197682;28;20072;-89
2020/12/25 10:08:31;;;;;;;0.40;0.40;;;4.30;96.30;;;;;;4181920;28;20152;-91
2020/12/25 10:10:32;;;;;;;0.30;0.20;;;4.30;96.50;;;;;;4164517;28;20148;-90
2020/12/25 10:12:34;;;;;;;0.10;0.10;;;4.40;96.60;;;;;;4137132;28;20058;-90
2020/12/25 10:14:35;;;;;;;0.20;0.20;;;4.40;96.60;;;;;;4165070;28;20446;-91
2020/12/25 10:16:36;;;;;;;0.30;0.30;;;4.40;96.30;;;;;;4191520;28;20045;-90
2020/12/25 10:18:38;;;;;;;0.82;0.50;;;4.40;96.00;;;;;;4180884;28;20416;-87
2020/12/25 10:20:39;;;;;;;0.20;0.20;;;4.50;96.20;;;;;;4149804;28;20052;-88
2020/12/25 10:22:40;;;;;;;0.32;0.22;;;4.50;96.60;;;;;;4205048;28;20044;-90
2020/12/25 10:24:42;;;;;;;0.10;0.10;;;4.50;96.60;;;;;;4176614;28;20122;-90
2020/12/25 10:26:48;;;;;;;0.20;0.20;;;4.60;96.40;;;;;;4146500;28;20042;-84
2020/12/25 10:28:49;;;;;;;0.20;0.20;;;4.60;96.00;;;;;;4162170;28;20049;-92
2020/12/25 10:30:51;;;;;;;0.20;0.20;;;4.50;96.00;;;;;;4183317;28;20099;-89
2020/12/25 10:32:52;;;;;;;1.13;0.30;;;4.50;96.00;;;;;;4163537;28;20417;-86
2020/12/25 10:34:53;;;;;;;0.52;0.40;;;4.50;96.10;;;;;;4146786;28;20048;-89
2020/12/25 10:36:54;;;;;;;0.30;0.30;;;4.50;96.10;;;;;;4182311;28;20109;-94
2020/12/25 10:38:56;;;;;;;0.13;0.13;;;4.60;96.10;;;;;;4162395;28;20132;-89
2020/12/25 10:40:57;;;;;;;0.20;0.20;;;4.60;96.10;;;;;;4186921;28;20044;-84
2020/12/25 10:42:58;;;;;;;0.28;0.20;;;4.50;95.90;;;;;;4173969;28;20052;-86
2020/12/25 10:44:59;;;;;;;0.10;0.10;;;4.50;95.80;;;;;;4145801;28;20056;-85